Time;durP1;ratioP1;P1;durP2;ratioP2;P2;SDS_P1;SDS_P2;PMS_P1;PMS_P2;Temp;Humidity;BMP_temperature;BMP_pressure;BME280_temperature;BME280_humidity;BME280_pressure;Samples;Min_cycle;Max_cycle;Signal;HPM_P1;HPM_P2
2021/05/22 00:00:52;;;;;;;15.82;5.40;;;;;;;10.48;65.40;94185.53;5016458;28;20105;-68
2021/05/22 00:03:18;;;;;;;13.50;5.80;;;;;;;10.46;65.50;94177.81;5016181;28;20084;-69
2021/05/22 00:05:43;;;;;;;11.60;4.57;;;;;;;10.44;65.50;94177.34;5016216;28;20033;-68
2021/05/22 00:08:09;;;;;;;11.70;5.57;;;;;;;10.41;65.58;94172.63;4998435;28;20041;-68
2021/05/22 00:10:34;;;;;;;12.85;5.35;;;;;;;10.39;65.70;94167.59;5014930;28;20029;-68
2021/05/22 00:13:00;;;;;;;13.88;6.75;;;;;;;10.34;65.83;94174.94;4998703;28;20026;-69
2021/05/22 00:15:25;;;;;;;12.80;6.25;;;;;;;10.29;65.80;94162.50;4998360;28;20033;-69
2021/05/22 00:17:50;;;;;;;14.27;6.13;;;;;;;10.27;65.94;94163.91;5015761;28;20046;-68
2021/05/22 00:20:16;;;;;;;10.63;5.43;;;;;;;10.24;65.90;94158.06;5014103;28;20457;-69
2021/05/22 00:22:42;;;;;;;15.98;5.65;;;;;;;10.20;65.46;94159.00;4995308;28;20105;-69
2021/05/22 00:25:09;;;;;;;11.30;5.80;;;;;;;10.12;65.64;94149.06;5013177;28;20076;-69
2021/05/22 00:27:35;;;;;;;15.60;6.15;;;;;;;10.11;65.80;94152.81;5012630;28;20033;-69
2021/05/22 00:30:01;;;;;;;11.20;6.40;;;;;;;10.09;65.80;94158.44;4995303;28;20026;-69
2021/05/22 00:32:27;;;;;;;13.57;5.65;;;;;;;10.02;65.79;94150.88;4995037;28;20028;-68
2021/05/22 00:34:52;;;;;;;12.30;5.75;;;;;;;10.02;65.82;94152.75;4995304;28;20038;-69
2021/05/22 00:37:18;;;;;;;10.38;5.93;;;;;;;9.96;66.03;94153.94;4995046;28;20034;-69
2021/05/22 00:39:43;;;;;;;12.07;6.35;;;;;;;9.98;65.93;94157.09;5011074;28;20088;-68
2021/05/22 00:42:09;;;;;;;8.85;5.40;;;;;;;9.94;65.96;94151.59;4995118;28;20022;-69
2021/05/22 00:44:54;;;;;;;7.53;5.15;;;;;;;9.92;66.00;94152.97;5012639;28;20034;-69
2021/05/22 00:47:20;;;;;;;9.63;5.28;;;;;;;9.91;66.17;94143.41;4994668;28;20099;-69
2021/05/22 00:49:45;;;;;;;11.32;5.22;;;;;;;9.89;66.38;94143.72;4994814;28;20390;-69
2021/05/22 00:52:10;;;;;;;9.02;5.32;;;;;;;9.88;66.29;94147.47;5012545;28;20497;-69
2021/05/22 00:54:36;;;;;;;17.45;5.20;;;;;;;9.87;66.29;94151.22;4994888;28;20470;-68
2021/05/22 00:57:01;;;;;;;12.60;4.78;;;;;;;9.91;66.32;94146.06;5012194;28;20026;-69
2021/05/22 00:59:27;;;;;;;6.35;3.78;;;;;;;9.84;65.96;94144.63;4994667;28;20030;-69
2021/05/22 01:01:52;;;;;;;6.63;4.38;;;;;;;9.77;66.18;94141.59;5012263;28;20551;-69
2021/05/22 01:04:19;;;;;;;8.05;5.00;;;;;;;9.78;66.18;94132.50;5012253;28;20064;-68
2021/05/22 01:06:44;;;;;;;6.88;4.50;;;;;;;9.78;66.55;94132.50;4994647;28;20524;-69
2021/05/22 01:09:15;;;;;;;11.05;4.55;;;;;;;9.79;66.45;94136.75;5012168;28;20054;-69
2021/05/22 01:12:06;;;;;;;10.75;5.28;;;;;;;9.74;66.27;94130.75;5011048;28;20017;-69
2021/05/22 01:14:40;;;;;;;8.18;4.28;;;;;;;9.62;66.65;94137.38;5011958;28;20405;-69
2021/05/22 01:17:06;;;;;;;6.28;4.30;;;;;;;9.55;66.74;94130.91;4994100;28;20050;-68
2021/05/22 01:19:51;;;;;;;8.45;4.45;;;;;;;9.48;66.95;94136.63;5011866;28;20080;-67
2021/05/22 01:22:18;;;;;;;7.53;4.03;;;;;;;9.49;67.00;94134.78;4994704;28;20112;-68
2021/05/22 01:25:00;;;;;;;8.52;3.80;;;;;;;9.42;67.38;94133.31;4994082;28;20037;-68
2021/05/22 01:27:25;;;;;;;13.02;4.43;;;;;;;9.47;67.39;94131.63;4994146;28;20412;-67
2021/05/22 01:29:51;;;;;;;9.55;4.45;;;;;;;9.46;67.69;94135.34;5011799;28;20080;-68
2021/05/22 01:32:18;;;;;;;11.18;5.43;;;;;;;9.39;67.95;94136.53;4993719;28;20053;-68
2021/05/22 01:34:44;;;;;;;10.07;4.38;;;;;;;9.39;67.76;94141.88;5011512;28;20445;-68
2021/05/22 01:37:09;;;;;;;9.90;4.80;;;;;;;9.32;67.87;94146.00;4993956;28;20464;-68
2021/05/22 01:39:35;;;;;;;7.22;4.50;;;;;;;9.29;68.55;94144.75;5011512;28;20034;-68
2021/05/22 01:42:00;;;;;;;13.88;6.28;;;;;;;9.31;68.16;94139.13;4994020;28;20025;-68
2021/05/22 01:44:30;;;;;;;14.90;7.05;;;;;;;9.28;68.94;94145.84;4994080;28;20136;-67
2021/05/22 01:46:57;;;;;;;7.40;4.82;;;;;;;9.29;69.14;94147.41;5011222;28;20030;-68
2021/05/22 01:49:25;;;;;;;15.35;6.47;;;;;;;9.23;69.44;94145.94;5011269;28;20029;-68
2021/05/22 01:51:53;;;;;;;14.23;6.85;;;;;;;9.23;70.24;94143.25;5009962;28;20050;-68
2021/05/22 01:54:20;;;;;;;11.95;7.03;;;;;;;9.17;70.19;94150.56;5011345;28;20053;-69
2021/05/22 01:56:47;;;;;;;16.02;6.20;;;;;;;9.13;70.58;94149.56;5011089;28;20026;-68
2021/05/22 01:59:13;;;;;;;9.30;6.15;;;;;;;9.10;70.47;94152.03;4993586;28;20116;-69
2021/05/22 02:01:38;;;;;;;11.02;5.95;;;;;;;9.03;70.58;94147.09;4993626;28;20501;-68
2021/05/22 02:04:06;;;;;;;10.77;6.57;;;;;;;9.05;70.60;94150.25;4993499;28;20446;-69
2021/05/22 02:06:42;;;;;;;9.20;6.00;;;;;;;9.01;70.29;94151.94;4993492;28;20025;-68
2021/05/22 02:09:08;;;;;;;12.88;6.65;;;;;;;8.95;70.81;94143.25;4993520;28;20124;-69
2021/05/22 02:11:38;;;;;;;13.10;5.60;;;;;;;8.96;70.70;94136.88;5011181;28;20041;-69
2021/05/22 02:14:06;;;;;;;9.82;5.88;;;;;;;9.06;70.41;94137.75;4993067;28;20029;-68
2021/05/22 02:16:35;;;;;;;12.40;7.05;;;;;;;9.03;70.13;94133.81;4992877;28;20037;-69
2021/05/22 02:19:04;;;;;;;10.73;4.90;;;;;;;9.00;70.04;94121.91;4992979;28;20030;-70
2021/05/22 02:21:30;;;;;;;7.78;5.22;;;;;;;9.00;69.77;94123.78;4992837;28;20033;-69
2021/05/22 02:23:56;;;;;;;7.65;5.15;;;;;;;8.98;69.45;94121.41;4993242;28;20022;-69
2021/05/22 02:26:25;;;;;;;7.95;5.03;;;;;;;8.98;69.22;94124.06;4992974;28;20037;-68
2021/05/22 02:28:52;;;;;;;7.53;5.00;;;;;;;8.97;69.03;94127.03;5010588;28;20489;-69
2021/05/22 02:31:18;;;;;;;8.73;5.05;;;;;;;8.97;69.05;94127.81;5010247;28;20048;-69
2021/05/22 02:33:46;;;;;;;8.18;4.93;;;;;;;8.99;69.13;94125.63;4992653;28;20022;-68
2021/05/22 02:36:12;;;;;;;10.60;5.18;;;;;;;8.89;68.97;94128.50;4992329;28;20044;-68
2021/05/22 02:38:47;;;;;;;7.05;5.47;;;;;;;8.87;69.34;94130.66;5010574;28;20457;-68
2021/05/22 02:41:14;;;;;;;9.68;4.70;;;;;;;8.86;69.56;94141.59;5010319;28;20077;-68
2021/05/22 02:43:43;;;;;;;9.38;5.25;;;;;;;8.86;69.43;94141.59;5009245;28;20037;-68
2021/05/22 02:46:10;;;;;;;7.97;4.93;;;;;;;8.83;69.45;94130.47;4992627;28;20029;-68
2021/05/22 02:48:37;;;;;;;11.13;5.13;;;;;;;8.84;69.47;94128.59;4992326;28;20113;-68
2021/05/22 02:51:05;;;;;;;9.95;6.50;;;;;;;8.83;69.20;94141.13;4992380;28;20139;-68
2021/05/22 02:53:34;;;;;;;14.45;6.47;;;;;;;8.81;69.31;94137.16;4992359;28;20026;-68
2021/05/22 02:56:01;;;;;;;14.40;5.78;;;;;;;8.80;69.66;94140.91;5010181;28;20084;-68
2021/05/22 02:58:27;;;;;;;14.13;6.00;;;;;;;8.77;69.06;94142.28;5010317;28;20038;-68
2021/05/22 03:00:52;;;;;;;10.98;6.80;;;;;;;8.75;69.38;94144.47;5010261;28;20022;-68
2021/05/22 03:03:18;;;;;;;23.38;7.07;;;;;;;8.77;69.21;94149.47;5010001;28;20037;-68
2021/05/22 03:05:44;;;;;;;9.38;6.57;;;;;;;8.73;69.24;94151.13;5010041;28;20017;-68
2021/05/22 03:08:10;;;;;;;9.82;5.93;;;;;;;8.68;69.56;94148.56;4992351;28;20092;-68
2021/05/22 03:10:36;;;;;;;11.18;6.18;;;;;;;8.65;69.95;94144.66;4992684;28;20092;-68
2021/05/22 03:13:02;;;;;;;8.73;5.53;;;;;;;8.68;70.05;94146.69;4992159;28;20034;-68
2021/05/22 03:15:28;;;;;;;7.93;6.15;;;;;;;8.68;70.01;94149.34;4992315;28;20026;-68
2021/05/22 03:17:53;;;;;;;12.10;6.38;;;;;;;8.67;70.16;94153.13;5009801;28;20042;-68
2021/05/22 03:20:18;;;;;;;19.30;6.18;;;;;;;8.63;70.40;94166.19;4992466;28;20391;-68
2021/05/22 03:22:44;;;;;;;8.10;6.20;;;;;;;8.66;70.19;94164.03;5010007;28;20034;-68
2021/05/22 03:25:10;;;;;;;8.82;5.85;;;;;;;8.67;70.37;94170.91;5009783;28;20026;-68
2021/05/22 03:27:37;;;;;;;9.30;5.60;;;;;;;8.70;70.34;94175.66;5008657;28;20401;-68
2021/05/22 03:30:04;;;;;;;10.27;5.63;;;;;;;8.63;70.18;94184.78;4992094;28;20026;-68
2021/05/22 03:32:29;;;;;;;10.48;4.55;;;;;;;8.62;71.01;94193.81;5009727;28;20030;-68
2021/05/22 03:34:55;;;;;;;8.40;4.72;;;;;;;8.60;70.89;94195.97;5009504;28;20382;-69
2021/05/22 03:37:20;;;;;;;6.38;4.35;;;;;;;8.54;70.81;94191.06;4992166;28;20268;-69
2021/05/22 03:39:46;;;;;;;11.73;5.22;;;;;;;8.60;71.26;94193.31;4992148;28;20414;-69
2021/05/22 03:42:12;;;;;;;8.75;5.65;;;;;;;8.62;71.20;94198.34;4992257;28;20120;-69
2021/05/22 03:44:38;;;;;;;8.85;5.50;;;;;;;8.66;71.37;94199.34;5009710;28;20062;-69
2021/05/22 03:47:03;;;;;;;10.07;5.90;;;;;;;8.68;71.87;94197.19;5009611;28;20025;-69
2021/05/22 03:49:28;;;;;;;8.73;6.15;;;;;;;8.72;71.76;94203.50;4991962;28;20033;-69
2021/05/22 03:51:55;;;;;;;14.68;7.68;;;;;;;8.82;71.57;94213.94;4992192;28;20466;-69
2021/05/22 03:54:21;;;;;;;12.57;7.40;;;;;;;8.95;71.64;94216.91;5010511;28;20032;-69
2021/05/22 03:56:46;;;;;;;7.63;5.50;;;;;;;9.01;71.64;94210.44;5013116;28;20033;-69
2021/05/22 03:59:11;;;;;;;11.35;7.30;;;;;;;9.01;71.67;94218.41;4995602;28;20087;-69
2021/05/22 04:01:37;;;;;;;15.38;7.32;;;;;;;9.13;71.73;94229.34;4995412;28;20051;-70
2021/05/22 04:04:03;;;;;;;14.73;7.50;;;;;;;9.21;71.37;94218.03;5013190;28;20441;-69
2021/05/22 04:06:28;;;;;;;10.60;6.88;;;;;;;9.40;70.66;94212.63;5010540;28;20152;-68
2021/05/22 04:08:54;;;;;;;13.63;7.35;;;;;;;9.57;70.07;94209.34;5013208;28;20117;-68
2021/05/22 04:11:19;;;;;;;11.80;6.97;;;;;;;9.69;69.93;94211.50;4995274;28;20413;-68
2021/05/22 04:13:44;;;;;;;14.00;6.55;;;;;;;9.81;69.82;94187.81;4995015;28;20053;-68
2021/05/22 04:16:10;;;;;;;9.95;6.88;;;;;;;10.00;69.73;94192.22;5012980;28;20383;-68
2021/05/22 04:18:35;;;;;;;18.77;7.00;;;;;;;10.12;69.81;94192.47;4995164;28;20053;-69
2021/05/22 04:21:01;;;;;;;16.63;9.68;;;;;;;10.27;69.84;94193.19;5012940;28;20038;-68
2021/05/22 04:23:26;;;;;;;17.67;9.45;;;;;;;10.42;69.75;94183.00;4995423;28;20117;-69
2021/05/22 04:25:52;;;;;;;16.80;9.75;;;;;;;10.55;69.78;94176.00;4994954;28;20118;-69
2021/05/22 04:28:17;;;;;;;13.35;9.88;;;;;;;10.64;69.43;94179.53;5012773;28;20025;-69
2021/05/22 04:30:42;;;;;;;15.88;9.60;;;;;;;10.82;68.98;94179.59;4994848;28;20053;-69
2021/05/22 04:33:08;;;;;;;14.32;9.52;;;;;;;11.04;68.34;94187.56;5011385;28;20037;-69
2021/05/22 04:35:34;;;;;;;11.90;8.70;;;;;;;11.17;68.27;94193.09;5012649;28;20042;-68
2021/05/22 04:37:59;;;;;;;18.73;9.32;;;;;;;11.26;67.72;94187.81;4994913;28;20022;-68
2021/05/22 04:40:24;;;;;;;11.80;8.93;;;;;;;11.35;67.04;94186.72;5012485;28;20414;-69
2021/05/22 04:42:50;;;;;;;13.95;8.27;;;;;;;11.43;66.81;94187.84;5012568;28;20504;-69
2021/05/22 04:45:16;;;;;;;16.45;8.80;;;;;;;11.45;66.56;94191.78;5012536;28;20112;-69
2021/05/22 04:47:42;;;;;;;16.17;9.82;;;;;;;11.31;66.46;94193.78;4994518;28;20079;-68
2021/05/22 04:50:08;;;;;;;18.08;9.98;;;;;;;11.19;67.07;94205.06;5012481;28;20029;-68
2021/05/22 04:52:34;;;;;;;16.17;9.32;;;;;;;11.22;66.96;94214.31;5012387;28;20033;-68
2021/05/22 04:54:59;;;;;;;13.18;9.05;;;;;;;11.26;66.98;94214.50;5012043;28;20030;-68
2021/05/22 04:57:25;;;;;;;16.65;9.63;;;;;;;11.24;68.03;94217.47;5012277;28;20485;-68
2021/05/22 04:59:50;;;;;;;19.15;8.73;;;;;;;11.29;66.16;94219.97;5011992;28;20033;-68
2021/05/22 05:02:16;;;;;;;13.98;9.25;;;;;;;11.28;66.58;94226.44;5012247;28;20119;-68
2021/05/22 05:04:41;;;;;;;19.40;9.85;;;;;;;11.24;66.74;94212.13;5012027;28;20030;-68
2021/05/22 05:07:07;;;;;;;14.32;9.48;;;;;;;11.31;66.46;94217.78;5011024;28;20026;-69
2021/05/22 05:09:34;;;;;;;13.90;9.60;;;;;;;11.42;66.56;94218.31;4994257;28;20057;-69
2021/05/22 05:12:07;;;;;;;17.23;9.05;;;;;;;11.52;65.85;94218.03;5011764;28;20026;-68
2021/05/22 05:14:33;;;;;;;16.00;9.75;;;;;;;11.59;65.36;94220.25;4994154;28;20505;-68
2021/05/22 05:16:59;;;;;;;16.60;9.73;;;;;;;11.65;65.12;94219.00;4993701;28;20044;-68
2021/05/22 05:19:28;;;;;;;24.25;9.60;;;;;;;11.71;64.96;94225.78;5011795;28;20108;-69
2021/05/22 05:21:54;;;;;;;15.65;9.02;;;;;;;11.77;64.35;94240.56;5011589;28;20112;-70
2021/05/22 05:24:19;;;;;;;20.20;9.70;;;;;;;11.78;64.96;94239.44;5011553;28;20405;-69
2021/05/22 05:26:45;;;;;;;12.93;9.43;;;;;;;11.80;64.86;94255.16;4993753;28;20041;-69
2021/05/22 05:29:10;;;;;;;12.43;9.63;;;;;;;11.71;65.03;94254.38;4993746;28;20498;-70
2021/05/22 05:31:36;;;;;;;13.90;8.27;;;;;;;11.65;64.49;94270.50;5011188;28;20034;-70
2021/05/22 05:34:01;;;;;;;15.68;8.35;;;;;;;11.61;63.84;94268.78;5011368;28;20029;-70
2021/05/22 05:36:26;;;;;;;11.63;8.15;;;;;;;11.62;64.26;94275.69;4993866;28;20034;-68
2021/05/22 05:38:52;;;;;;;15.43;8.25;;;;;;;11.69;64.35;94269.91;4993509;28;20117;-68
2021/05/22 05:41:18;;;;;;;12.80;8.95;;;;;;;11.69;65.17;94273.38;5011130;28;20498;-71
2021/05/22 05:43:43;;;;;;;13.75;9.00;;;;;;;11.82;65.51;94269.81;4993741;28;20034;-71
2021/05/22 05:46:09;;;;;;;18.92;9.70;;;;;;;11.92;64.99;94259.94;4993400;28;20088;-71
2021/05/22 05:48:34;;;;;;;15.88;9.63;;;;;;;12.09;64.69;94262.66;4993834;28;20456;-71
2021/05/22 05:50:59;;;;;;;14.40;8.55;;;;;;;12.26;64.50;94266.44;5010927;28;20029;-71
2021/05/22 05:53:25;;;;;;;19.52;8.63;;;;;;;12.46;63.75;94271.16;4993004;28;20026;-72
2021/05/22 05:55:50;;;;;;;15.50;8.52;;;;;;;12.66;64.88;94267.09;4993035;28;20507;-71
2021/05/22 05:58:16;;;;;;;14.38;8.95;;;;;;;12.83;64.20;94261.69;5010811;28;20373;-71
2021/05/22 06:00:41;;;;;;;17.67;9.45;;;;;;;13.03;62.93;94279.00;4993235;28;20037;-71
2021/05/22 06:03:06;;;;;;;16.10;7.32;;;;;;;13.16;62.77;94276.44;4992860;28;20026;-71
2021/05/22 06:05:32;;;;;;;16.02;8.20;;;;;;;13.33;61.83;94280.97;4993230;28;20335;-71
2021/05/22 06:07:57;;;;;;;11.88;7.55;;;;;;;13.53;61.34;94276.81;4992679;28;20029;-71
2021/05/22 06:10:23;;;;;;;16.70;7.10;;;;;;;13.65;59.90;94282.28;4992923;28;20030;-71
2021/05/22 06:12:49;;;;;;;12.23;6.05;;;;;;;13.82;59.01;94292.94;4993171;28;20030;-71
2021/05/22 06:17:41;;;;;;;11.45;4.57;;;;;;;14.16;57.89;94301.88;5010438;28;20057;-71
2021/05/22 06:20:08;;;;;;;8.30;4.60;;;;;;;14.35;57.35;94311.41;5009157;28;20090;-72
2021/05/22 06:22:33;;;;;;;15.55;5.07;;;;;;;14.52;57.17;94305.16;4992321;28;20493;-72
2021/05/22 06:25:00;;;;;;;13.70;5.25;;;;;;;14.70;56.34;94303.94;4992718;28;20096;-72
2021/05/22 06:27:25;;;;;;;8.38;4.65;;;;;;;14.71;55.29;94302.03;4993200;28;20104;-72
2021/05/22 06:29:50;;;;;;;8.73;4.78;;;;;;;14.58;54.74;94304.66;4992738;28;20105;-70
2021/05/22 06:32:16;;;;;;;12.55;5.13;;;;;;;14.60;55.74;94298.97;5010597;28;20481;-71
2021/05/22 06:34:41;;;;;;;8.98;4.30;;;;;;;14.80;55.37;94292.03;5010261;28;20028;-72
2021/05/22 06:37:08;;;;;;;5.28;4.07;;;;;;;14.86;54.26;94288.03;5010044;28;20026;-72
2021/05/22 06:39:33;;;;;;;5.15;3.30;;;;;;;15.01;54.72;94282.03;5010239;28;20113;-72
2021/05/22 06:41:58;;;;;;;6.63;3.97;;;;;;;15.17;54.67;94289.47;5010083;28;20109;-70
2021/05/22 06:44:49;;;;;;;5.53;3.95;;;;;;;15.35;54.08;94292.78;5009905;28;20029;-72
2021/05/22 06:47:12;;;;;;;10.38;5.13;;;;;;;15.48;53.47;94288.97;5009566;28;20026;-72
2021/05/22 06:49:37;;;;;;;9.05;4.53;;;;;;;15.64;53.17;94297.19;5010238;28;20552;-72
2021/05/22 06:52:04;;;;;;;6.95;4.85;;;;;;;15.76;52.91;94299.91;5009953;28;20032;-72
2021/05/22 06:54:31;;;;;;;11.20;4.80;;;;;;;15.93;52.67;94303.50;4992483;28;20036;-73
2021/05/22 06:56:56;;;;;;;7.85;5.13;;;;;;;16.06;53.01;94297.03;4992113;28;20041;-70
2021/05/22 06:59:22;;;;;;;8.75;4.95;;;;;;;16.16;51.35;94301.16;5009583;28;20026;-70
2021/05/22 07:01:48;;;;;;;9.98;4.55;;;;;;;16.20;50.71;94297.47;5009855;28;20025;-70
2021/05/22 07:04:13;;;;;;;9.20;4.60;;;;;;;16.30;50.97;94306.19;4991255;28;20033;-70
2021/05/22 07:06:39;;;;;;;8.25;4.45;;;;;;;16.37;51.02;94317.16;5009812;28;20018;-69
2021/05/22 07:09:04;;;;;;;6.60;4.35;;;;;;;16.49;50.34;94314.47;5009597;28;20120;-70
2021/05/22 07:11:30;;;;;;;10.15;4.78;;;;;;;16.57;49.68;94313.56;5009288;28;20497;-71
2021/05/22 07:13:55;;;;;;;10.35;5.00;;;;;;;16.41;49.23;94318.84;5009650;28;20029;-70
2021/05/22 07:16:21;;;;;;;8.05;4.57;;;;;;;16.34;50.07;94307.84;4991564;28;20022;-71
2021/05/22 07:18:46;;;;;;;12.68;4.95;;;;;;;16.22;49.17;94311.34;5009171;28;20042;-70
2021/05/22 07:21:13;;;;;;;13.35;5.05;;;;;;;16.16;49.92;94320.78;5009323;28;20128;-71
2021/05/22 07:23:38;;;;;;;11.70;4.53;;;;;;;16.21;50.65;94325.91;5009118;28;20474;-70
2021/05/22 07:26:04;;;;;;;8.00;4.55;;;;;;;16.40;50.73;94319.16;4991610;28;20036;-72
2021/05/22 07:28:31;;;;;;;9.88;4.60;;;;;;;16.58;50.58;94317.78;5009011;28;20097;-71
2021/05/22 07:30:59;;;;;;;10.18;5.05;;;;;;;16.72;50.09;94301.28;5011642;28;20026;-71
2021/05/22 07:33:29;;;;;;;10.68;4.38;;;;;;;16.84;49.69;94285.13;4995392;28;20490;-71
2021/05/22 07:35:54;;;;;;;9.65;4.78;;;;;;;16.91;49.09;94276.47;5013222;28;20030;-71
2021/05/22 07:38:21;;;;;;;9.07;4.75;;;;;;;17.10;49.33;94261.59;5013137;28;20532;-71
2021/05/22 07:40:46;;;;;;;10.38;4.15;;;;;;;17.29;49.46;94260.94;4995430;28;20481;-71
2021/05/22 07:43:12;;;;;;;12.82;4.40;;;;;;;17.47;48.31;94253.31;5013444;28;20087;-71
2021/05/22 07:45:38;;;;;;;6.90;4.22;;;;;;;17.66;46.95;94248.00;5011762;28;20424;-71
2021/05/22 07:48:04;;;;;;;7.43;4.97;;;;;;;17.77;46.43;94256.34;4995144;28;20394;-71
2021/05/22 07:50:30;;;;;;;18.60;5.78;;;;;;;17.86;45.85;94256.19;4995393;28;20037;-71
2021/05/22 07:52:56;;;;;;;9.07;4.30;;;;;;;17.97;45.64;94255.31;4995452;28;20057;-71
2021/05/22 07:55:21;;;;;;;19.60;5.05;;;;;;;18.14;44.97;94258.78;5012920;28;20172;-71
2021/05/22 07:57:47;;;;;;;7.75;4.75;;;;;;;18.19;45.54;94251.16;4995208;28;20067;-71
2021/05/22 08:00:13;;;;;;;7.55;4.80;;;;;;;18.27;45.00;94235.94;4995274;28;20109;-70
2021/05/22 08:02:38;;;;;;;16.63;5.55;;;;;;;18.32;44.26;94245.66;5012809;28;20022;-72
2021/05/22 08:05:07;;;;;;;7.78;4.32;;;;;;;18.31;44.08;94244.09;5012714;28;20030;-72
2021/05/22 08:07:34;;;;;;;12.77;5.97;;;;;;;18.36;44.35;94247.31;5012929;28;20018;-81
2021/05/22 08:09:59;;;;;;;9.35;4.35;;;;;;;18.42;42.91;94255.94;4994948;28;20049;-73
2021/05/22 08:12:25;;;;;;;9.43;3.10;;;;;;;18.10;42.72;94266.00;5012841;28;20130;-73
2021/05/22 08:14:50;;;;;;;12.65;3.22;;;;;;;17.82;42.50;94275.72;4994187;28;20022;-77
2021/05/22 08:17:17;;;;;;;5.32;3.53;;;;;;;17.71;43.20;94280.09;4993555;28;20421;-73
2021/05/22 08:19:43;;;;;;;6.85;3.58;;;;;;;17.77;44.79;94272.53;5012794;28;20018;-71
2021/05/22 08:22:08;;;;;;;7.32;3.92;;;;;;;17.96;43.92;94267.22;5012634;28;20382;-70
2021/05/22 08:24:34;;;;;;;10.02;3.30;;;;;;;18.02;43.10;94267.75;5012170;28;20375;-69
2021/05/22 08:27:00;;;;;;;8.32;3.22;;;;;;;17.96;42.29;94264.53;5012638;28;20061;-82
2021/05/22 08:29:25;;;;;;;7.00;3.97;;;;;;;18.09;43.30;94257.09;4994872;28;20021;-75
2021/05/22 08:31:50;;;;;;;11.40;3.90;;;;;;;18.19;42.68;94253.09;4994549;28;20536;-76
2021/05/22 08:34:16;;;;;;;11.88;3.75;;;;;;;18.35;42.97;94255.75;4994535;28;20041;-76
2021/05/22 08:36:41;;;;;;;9.20;4.82;;;;;;;18.45;42.21;94255.22;4994729;28;20036;-77
2021/05/22 08:39:07;;;;;;;7.28;4.30;;;;;;;18.54;42.44;94255.00;4994664;28;20409;-76
2021/05/22 08:41:34;;;;;;;16.20;4.50;;;;;;;18.56;41.59;94258.94;4993246;28;20028;-79
2021/05/22 08:44:02;;;;;;;12.25;5.78;;;;;;;18.50;43.15;94254.13;4994267;28;20026;-81
2021/05/22 08:46:30;;;;;;;11.38;5.30;;;;;;;18.39;43.08;94264.72;5011712;28;20053;-80
2021/05/22 08:48:56;;;;;;;10.10;5.30;;;;;;;18.49;43.25;94253.38;4994971;28;20490;-82
2021/05/22 08:51:22;;;;;;;22.15;4.53;;;;;;;18.50;43.03;94264.94;4995899;28;20057;-82
2021/05/22 08:53:48;;;;;;;8.95;4.07;;;;;;;18.70;43.28;94255.72;5013457;28;20037;-84
2021/05/22 08:56:14;;;;;;;11.57;4.55;;;;;;;18.98;42.49;94247.44;4995114;28;20033;-84
2021/05/22 08:58:40;;;;;;;11.52;4.05;;;;;;;19.17;41.83;94240.44;4994398;28;20079;-84
2021/05/22 09:01:05;;;;;;;7.50;3.90;;;;;;;19.28;39.98;94237.97;4993679;28;20417;-82
2021/05/22 09:03:31;;;;;;;11.75;4.78;;;;;;;19.42;38.85;94240.91;5011572;28;20026;-82
2021/05/22 09:05:57;;;;;;;10.68;3.70;;;;;;;19.49;38.58;94230.22;4993744;28;20060;-82
2021/05/22 09:08:22;;;;;;;8.95;3.08;;;;;;;19.64;38.63;94226.59;5011424;28;20096;-82
2021/05/22 09:10:50;;;;;;;7.95;2.80;;;;;;;19.90;37.47;94229.72;4994059;28;20022;-82
2021/05/22 09:13:25;;;;;;;11.95;2.90;;;;;;;20.18;36.68;94230.16;4993514;28;20033;-82
2021/05/22 09:15:59;;;;;;;7.28;2.78;;;;;;;20.45;37.20;94227.41;4993829;28;20037;-82
2021/05/22 09:18:26;;;;;;;8.73;2.65;;;;;;;20.74;35.85;94230.53;4993509;28;20152;-81
2021/05/22 09:20:54;;;;;;;5.35;2.30;;;;;;;20.93;35.26;94230.38;5011429;28;20101;-81
2021/05/22 09:23:32;;;;;;;6.40;2.83;;;;;;;21.11;35.03;94232.50;4993160;28;20029;-82
2021/05/22 09:26:06;;;;;;;3.70;2.53;;;;;;;21.29;34.79;94221.81;4993841;28;20053;-82
2021/05/22 09:28:34;;;;;;;12.50;2.25;;;;;;;21.45;35.73;94227.81;5011647;28;20049;-82
2021/05/22 09:31:00;;;;;;;8.13;3.20;;;;;;;21.54;34.46;94224.81;4993497;28;20072;-75
2021/05/22 09:33:28;;;;;;;8.65;2.60;;;;;;;21.72;34.84;94231.19;4993358;28;20041;-76
2021/05/22 09:35:59;;;;;;;5.28;3.00;;;;;;;21.86;34.09;94224.31;5011493;28;20503;-76
2021/05/22 09:38:41;;;;;;;5.18;2.88;;;;;;;21.41;33.76;94216.94;4993238;28;20434;-76
2021/05/22 09:41:23;;;;;;;5.50;2.67;;;;;;;21.40;33.80;94209.94;4993703;28;20033;-76
2021/05/22 09:44:11;;;;;;;8.10;3.38;;;;;;;21.59;33.81;94210.91;5011291;28;20040;-76
2021/05/22 09:47:00;;;;;;;3.67;2.58;;;;;;;21.62;33.38;94207.47;4991521;28;20060;-76
2021/05/22 09:49:32;;;;;;;9.15;3.17;;;;;;;21.46;33.23;94190.66;5008958;28;20022;-76
2021/05/22 09:52:08;;;;;;;5.28;2.60;;;;;;;21.57;33.66;94199.66;4992807;28;20096;-76
2021/05/22 09:54:50;;;;;;;3.45;2.40;;;;;;;21.54;32.44;94206.63;4992990;28;20072;-76
2021/05/22 09:57:20;;;;;;;3.83;2.42;;;;;;;21.50;33.24;94203.09;5009263;28;20065;-76
2021/05/22 10:00:08;;;;;;;2.97;2.05;;;;;;;21.54;32.63;94192.28;4992818;28;20454;-77
2021/05/22 10:02:40;;;;;;;4.95;2.22;;;;;;;21.41;32.00;94195.25;4992835;28;20049;-77
2021/05/22 10:05:17;;;;;;;6.22;2.42;;;;;;;21.32;32.51;94197.47;4993231;28;20029;-77
2021/05/22 10:07:44;;;;;;;6.80;2.95;;;;;;;21.24;33.60;94191.19;4992671;28;20045;-78
2021/05/22 10:10:10;;;;;;;6.15;2.45;;;;;;;21.28;35.22;94183.09;4992501;28;20113;-77
2021/05/22 10:12:36;;;;;;;4.20;2.22;;;;;;;21.30;35.17;94166.47;4992735;28;20049;-77
2021/05/22 10:15:03;;;;;;;7.65;2.80;;;;;;;21.37;34.70;94166.53;4992603;28;20026;-73
2021/05/22 10:17:29;;;;;;;4.93;2.55;;;;;;;21.42;35.48;94161.56;4992640;28;20129;-77
2021/05/22 10:19:55;;;;;;;5.45;2.45;;;;;;;21.44;34.66;94161.97;4991140;28;20108;-77
2021/05/22 10:22:20;;;;;;;4.45;2.38;;;;;;;21.48;35.12;94155.81;5009313;28;20057;-77
2021/05/22 10:24:46;;;;;;;5.75;2.35;;;;;;;21.51;35.71;94144.22;4992749;28;20037;-88
2021/05/22 10:27:13;;;;;;;10.35;2.08;;;;;;;21.56;34.38;94141.16;4993222;28;20022;-87
2021/05/22 10:29:38;;;;;;;4.68;2.25;;;;;;;21.60;34.41;94131.13;4993336;28;20029;-88
2021/05/22 10:32:04;;;;;;;4.20;2.20;;;;;;;21.67;34.58;94130.38;5009764;28;20033;-89
2021/05/22 10:34:36;;;;;;;3.92;2.25;;;;;;;21.73;34.93;94131.59;5010766;28;20029;-88
2021/05/22 10:37:02;;;;;;;5.50;2.03;;;;;;;21.78;34.80;94123.88;4992839;28;20034;-83
2021/05/22 10:39:44;;;;;;;3.15;2.35;;;;;;;21.80;32.41;94131.66;4993044;28;20075;-91
2021/05/22 10:42:18;;;;;;;;;;;;;;;21.73;33.42;94126.16;4992785;28;20056;-90
2021/05/22 10:44:44;;;;;;;5.05;2.55;;;;;;;21.68;34.10;94113.75;5009352;28;20004;-91
2021/05/22 10:47:11;;;;;;;6.72;2.30;;;;;;;21.59;31.29;94105.13;4992432;28;20108;-89
2021/05/22 10:49:53;;;;;;;8.43;2.38;;;;;;;21.66;33.56;94101.69;4992942;28;20033;-90
2021/05/22 10:52:23;;;;;;;9.35;2.90;;;;;;;21.72;34.46;94106.41;4992404;28;20029;-91
2021/05/22 10:55:10;;;;;;;8.77;2.60;;;;;;;21.80;33.36;94097.16;4992813;28;20065;-85
2021/05/22 10:57:41;;;;;;;3.58;2.13;;;;;;;21.93;33.44;94099.53;4992280;28;20096;-82
2021/05/22 11:00:16;;;;;;;4.35;2.40;;;;;;;22.03;31.89;94099.59;4992328;28;20045;-77
2021/05/22 11:02:47;;;;;;;5.25;2.78;;;;;;;22.12;32.55;94082.94;5010069;28;20029;-77
2021/05/22 11:05:27;;;;;;;15.05;2.63;;;;;;;22.22;33.28;94084.94;5008998;28;20144;-76
2021/05/22 11:08:05;;;;;;;6.55;2.08;;;;;;;22.32;33.55;94088.13;4992436;28;20030;-76
2021/05/22 11:10:41;;;;;;;9.50;2.35;;;;;;;22.36;32.62;94088.91;5009939;28;20111;-77
2021/05/22 11:13:31;;;;;;;4.53;2.42;;;;;;;22.42;32.02;94087.38;4991961;28;20041;-76
2021/05/22 11:15:59;;;;;;;4.47;2.08;;;;;;;22.54;32.75;94078.09;4992519;28;20529;-74
2021/05/22 11:18:26;;;;;;;4.05;2.10;;;;;;;22.58;32.15;94074.22;4991948;28;20123;-75
2021/05/22 11:21:18;;;;;;;2.83;1.95;;;;;;;22.61;28.99;94073.47;5010432;28;20029;-74
2021/05/22 11:23:59;;;;;;;3.40;2.03;;;;;;;22.45;28.39;94081.19;5003618;28;20038;-74
2021/05/22 11:26:48;;;;;;;5.50;3.13;;;;;;;22.43;29.71;94073.44;5009018;28;20474;-74
2021/05/22 11:29:14;;;;;;;10.23;2.20;;;;;;;22.33;28.72;94074.16;5010021;28;20050;-75
2021/05/22 11:31:40;;;;;;;9.73;2.60;;;;;;;22.28;30.53;94065.59;5009815;28;20109;-74
2021/05/22 11:34:23;;;;;;;5.68;2.10;;;;;;;22.41;31.69;94069.53;5008680;28;20105;-74
2021/05/22 11:37:30;;;;;;;5.95;2.22;;;;;;;22.62;32.19;94079.69;4991878;28;20430;-74